sensor_id;sensor_type;location;lat;lon;timestamp;pressure;altitude;pressure_sealevel;temperature;humidity
13612;BME280;6877;51.436;6.774;2023-07-29T00:00:05;100256.50;;;17.26;100.00
13612;BME280;6877;51.436;6.774;2023-07-29T00:02:32;100254.94;;;17.22;100.00
13612;BME280;6877;51.436;6.774;2023-07-29T00:05:04;100261.34;;;17.18;100.00
13612;BME280;6877;51.436;6.774;2023-07-29T00:07:30;100259.47;;;17.20;100.00
13612;BME280;6877;51.436;6.774;2023-07-29T00:10:02;100262.88;;;17.22;100.00
13612;BME280;6877;51.436;6.774;2023-07-29T00:12:29;100268.00;;;17.25;100.00
13612;BME280;6877;51.436;6.774;2023-07-29T00:14:55;100263.72;;;17.23;100.00
13612;BME280;6877;51.436;6.774;2023-07-29T00:17:27;100254.84;;;17.24;100.00
13612;BME280;6877;51.436;6.774;2023-07-29T00:19:58;100246.75;;;17.27;100.00
13612;BME280;6877;51.436;6.774;2023-07-29T00:22:30;100246.84;;;17.25;100.00
13612;BME280;6877;51.436;6.774;2023-07-29T00:24:56;100240.94;;;17.20;100.00
13612;BME280;6877;51.436;6.774;2023-07-29T00:27:28;100242.06;;;17.16;100.00
13612;BME280;6877;51.436;6.774;2023-07-29T00:29:55;100239.41;;;17.16;100.00
13612;BME280;6877;51.436;6.774;2023-07-29T00:32:21;100233.34;;;17.14;100.00
13612;BME280;6877;51.436;6.774;2023-07-29T00:34:48;100241.13;;;17.17;100.00
13612;BME280;6877;51.436;6.774;2023-07-29T00:37:14;100237.19;;;17.24;100.00
13612;BME280;6877;51.436;6.774;2023-07-29T00:39:40;100241.22;;;17.31;100.00
13612;BME280;6877;51.436;6.774;2023-07-29T00:42:12;100240.13;;;17.35;100.00
13612;BME280;6877;51.436;6.774;2023-07-29T00:44:43;100245.34;;;17.37;100.00
13612;BME280;6877;51.436;6.774;2023-07-29T00:47:11;100240.91;;;17.37;100.00
13612;BME280;6877;51.436;6.774;2023-07-29T00:49:38;100239.16;;;17.36;100.00
13612;BME280;6877;51.436;6.774;2023-07-29T00:52:11;100239.16;;;17.36;100.00
13612;BME280;6877;51.436;6.774;2023-07-29T00:54:43;100231.84;;;17.42;100.00
13612;BME280;6877;51.436;6.774;2023-07-29T00:57:15;100231.69;;;17.45;100.00
13612;BME280;6877;51.436;6.774;2023-07-29T00:59:43;100231.50;;;17.48;100.00
13612;BME280;6877;51.436;6.774;2023-07-29T01:02:09;100231.34;;;17.51;100.00
13612;BME280;6877;51.436;6.774;2023-07-29T01:04:41;100229.47;;;17.53;100.00
13612;BME280;6877;51.436;6.774;2023-07-29T01:10:19;100226.66;;;17.56;100.00
13612;BME280;6877;51.436;6.774;2023-07-29T01:18:24;100211.97;;;17.66;100.00
13612;BME280;6877;51.436;6.774;2023-07-29T01:21:03;100212.72;;;17.68;100.00
13612;BME280;6877;51.436;6.774;2023-07-29T01:23:35;100205.66;;;17.69;100.00
13612;BME280;6877;51.436;6.774;2023-07-29T01:26:07;100202.13;;;17.68;100.00
13612;BME280;6877;51.436;6.774;2023-07-29T01:28:33;100200.44;;;17.67;100.00
13612;BME280;6877;51.436;6.774;2023-07-29T01:31:16;100210.06;;;17.68;100.00
13612;BME280;6877;51.436;6.774;2023-07-29T01:33:57;100209.41;;;17.65;100.00
13612;BME280;6877;51.436;6.774;2023-07-29T01:36:30;100211.19;;;17.64;100.00
13612;BME280;6877;51.436;6.774;2023-07-29T01:39:05;100202.31;;;17.65;100.00
13612;BME280;6877;51.436;6.774;2023-07-29T01:41:31;100200.44;;;17.67;100.00
13612;BME280;6877;51.436;6.774;2023-07-29T01:44:04;100200.44;;;17.67;100.00
13612;BME280;6877;51.436;6.774;2023-07-29T01:46:37;100200.44;;;17.67;100.00
13612;BME280;6877;51.436;6.774;2023-07-29T01:49:03;100205.56;;;17.70;100.00
13612;BME280;6877;51.436;6.774;2023-07-29T01:51:29;100203.69;;;17.72;100.00
13612;BME280;6877;51.436;6.774;2023-07-29T01:54:01;100209.66;;;17.76;100.00
13612;BME280;6877;51.436;6.774;2023-07-29T01:56:27;100206.94;;;17.77;100.00
13612;BME280;6877;51.436;6.774;2023-07-29T01:58:59;100204.22;;;17.79;100.00
13612;BME280;6877;51.436;6.774;2023-07-29T02:01:25;100191.84;;;17.79;100.00
13612;BME280;6877;51.436;6.774;2023-07-29T02:03:51;100198.06;;;17.78;100.00
13612;BME280;6877;51.436;6.774;2023-07-29T02:06:21;100186.53;;;17.79;100.00
13612;BME280;6877;51.436;6.774;2023-07-29T02:08:47;100182.09;;;17.80;100.00
13612;BME280;6877;51.436;6.774;2023-07-29T02:11:19;100174.25;;;17.78;100.00
13612;BME280;6877;51.436;6.774;2023-07-29T02:13:46;100177.97;;;17.74;100.00
13612;BME280;6877;51.436;6.774;2023-07-29T02:16:13;100170.66;;;17.64;100.00
13612;BME280;6877;51.436;6.774;2023-07-29T02:18:39;100176.19;;;17.59;100.00
13612;BME280;6877;51.436;6.774;2023-07-29T02:21:06;100178.09;;;17.57;100.00
13612;BME280;6877;51.436;6.774;2023-07-29T02:23:32;100171.84;;;17.58;100.00
13612;BME280;6877;51.436;6.774;2023-07-29T02:25:59;100182.44;;;17.58;100.00
13612;BME280;6877;51.436;6.774;2023-07-29T02:28:25;100186.09;;;17.55;100.00
13612;BME280;6877;51.436;6.774;2023-07-29T02:31:16;100193.19;;;17.55;100.00
13612;BME280;6877;51.436;6.774;2023-07-29T02:33:43;100197.47;;;17.57;100.00
13612;BME280;6877;51.436;6.774;2023-07-29T02:36:11;100185.06;;;17.58;100.00
13612;BME280;6877;51.436;6.774;2023-07-29T02:38:43;100178.94;;;17.57;100.00
13612;BME280;6877;51.436;6.774;2023-07-29T02:41:15;100181.69;;;17.56;100.00
13612;BME280;6877;51.436;6.774;2023-07-29T02:43:50;100179.97;;;17.55;100.00
13612;BME280;6877;51.436;6.774;2023-07-29T02:46:17;100184.13;;;17.59;100.00
13612;BME280;6877;51.436;6.774;2023-07-29T02:48:44;100186.78;;;17.59;100.00
13612;BME280;6877;51.436;6.774;2023-07-29T02:51:11;100184.91;;;17.61;100.00
13612;BME280;6877;51.436;6.774;2023-07-29T02:53:37;100175.16;;;17.61;100.00
13612;BME280;6877;51.436;6.774;2023-07-29T02:56:04;100185.50;;;17.66;100.00
13612;BME280;6877;51.436;6.774;2023-07-29T02:58:40;100190.03;;;17.64;100.00
13612;BME280;6877;51.436;6.774;2023-07-29T03:01:12;100191.81;;;17.64;100.00
13612;BME280;6877;51.436;6.774;2023-07-29T03:03:39;100188.22;;;17.65;100.00
13612;BME280;6877;51.436;6.774;2023-07-29T03:06:12;100194.38;;;17.65;100.00
13612;BME280;6877;51.436;6.774;2023-07-29T03:08:44;100181.91;;;17.67;100.00
13612;BME280;6877;51.436;6.774;2023-07-29T03:11:12;100194.28;;;17.67;100.00
13612;BME280;6877;51.436;6.774;2023-07-29T03:13:44;100181.91;;;17.67;100.00
13612;BME280;6877;51.436;6.774;2023-07-29T03:16:16;100189.06;;;17.65;100.00
13612;BME280;6877;51.436;6.774;2023-07-29T03:18:44;100190.03;;;17.64;100.00
13612;BME280;6877;51.436;6.774;2023-07-29T03:21:15;100183.88;;;17.64;100.00
13612;BME280;6877;51.436;6.774;2023-07-29T03:23:42;100183.94;;;17.62;100.00
13612;BME280;6877;51.436;6.774;2023-07-29T03:26:08;100188.50;;;17.60;100.00
13612;BME280;6877;51.436;6.774;2023-07-29T03:28:43;100171.84;;;17.58;100.00
13612;BME280;6877;51.436;6.774;2023-07-29T03:31:10;100172.81;;;17.57;100.00
13612;BME280;6877;51.436;6.774;2023-07-29T03:33:37;100168.47;;;17.56;100.00
13612;BME280;6877;51.436;6.774;2023-07-29T03:36:03;100157.94;;;17.54;100.00
13612;BME280;6877;51.436;6.774;2023-07-29T03:38:30;100169.47;;;17.53;100.00
13612;BME280;6877;51.436;6.774;2023-07-29T03:40:59;100183.56;;;17.54;100.00
13612;BME280;6877;51.436;6.774;2023-07-29T03:43:25;100181.84;;;17.53;100.00
13612;BME280;6877;51.436;6.774;2023-07-29T03:45:56;100180.13;;;17.52;100.00
13612;BME280;6877;51.436;6.774;2023-07-29T03:48:23;100173.13;;;17.51;100.00
13612;BME280;6877;51.436;6.774;2023-07-29T03:50:54;100173.13;;;17.51;100.00
13612;BME280;6877;51.436;6.774;2023-07-29T03:53:21;100169.72;;;17.49;100.00
13612;BME280;6877;51.436;6.774;2023-07-29T03:55:47;100176.81;;;17.48;100.00
13612;BME280;6877;51.436;6.774;2023-07-29T03:58:13;100185.00;;;17.44;100.00
13612;BME280;6877;51.436;6.774;2023-07-29T04:00:45;100171.97;;;17.41;100.00
13612;BME280;6877;51.436;6.774;2023-07-29T04:03:11;100183.56;;;17.38;100.00
13612;BME280;6877;51.436;6.774;2023-07-29T04:05:38;100184.56;;;17.35;100.00
13612;BME280;6877;51.436;6.774;2023-07-29T04:08:09;100182.03;;;17.34;100.00
13612;BME280;6877;51.436;6.774;2023-07-29T04:10:36;100176.03;;;17.30;100.00
13612;BME280;6877;51.436;6.774;2023-07-29T04:13:04;100163.09;;;17.26;100.00
13612;BME280;6877;51.436;6.774;2023-07-29T04:15:35;100161.56;;;17.22;100.00
13612;BME280;6877;51.436;6.774;2023-07-29T04:18:02;100160.88;;;17.18;100.00
13612;BME280;6877;51.436;6.774;2023-07-29T04:20:33;100160.16;;;17.14;100.00
13612;BME280;6877;51.436;6.774;2023-07-29T04:23:00;100180.47;;;17.14;100.00
13612;BME280;6877;51.436;6.774;2023-07-29T04:25:26;100189.34;;;17.13;100.00
13612;BME280;6877;51.436;6.774;2023-07-29T04:27:52;100192.00;;;17.13;100.00
13612;BME280;6877;51.436;6.774;2023-07-29T04:30:19;100203.41;;;17.13;100.00
13612;BME280;6877;51.436;6.774;2023-07-29T04:32:45;100203.34;;;17.15;100.00
13612;BME280;6877;51.436;6.774;2023-07-29T04:35:19;100203.41;;;17.13;100.00
13612;BME280;6877;51.436;6.774;2023-07-29T04:37:46;100198.13;;;17.13;100.00
13612;BME280;6877;51.436;6.774;2023-07-29T04:40:19;100214.78;;;17.16;100.00
13612;BME280;6877;51.436;6.774;2023-07-29T04:42:45;100217.47;;;17.14;100.00
13612;BME280;6877;51.436;6.774;2023-07-29T04:45:12;100215.78;;;17.13;100.00
13612;BME280;6877;51.436;6.774;2023-07-29T04:47:44;100236.09;;;17.12;100.00
13612;BME280;6877;51.436;6.774;2023-07-29T04:50:10;100235.06;;;17.15;100.00
13612;BME280;6877;51.436;6.774;2023-07-29T04:52:36;100233.19;;;17.17;100.00
13612;BME280;6877;51.436;6.774;2023-07-29T04:55:08;100219.22;;;17.15;100.00
13612;BME280;6877;51.436;6.774;2023-07-29T04:57:34;100211.44;;;17.12;100.00
13612;BME280;6877;51.436;6.774;2023-07-29T05:00:02;100200.09;;;17.10;100.00
13612;BME280;6877;51.436;6.774;2023-07-29T05:02:34;100189.69;;;17.07;100.00
13612;BME280;6877;51.436;6.774;2023-07-29T05:05:05;100183.53;;;17.06;100.00
13612;BME280;6877;51.436;6.774;2023-07-29T05:07:32;100175.44;;;17.09;100.00
13612;BME280;6877;51.436;6.774;2023-07-29T05:09:58;100179.63;;;17.13;100.00
13612;BME280;6877;51.436;6.774;2023-07-29T05:12:24;100185.41;;;17.20;100.00
13612;BME280;6877;51.436;6.774;2023-07-29T05:14:51;100191.38;;;17.24;100.00
13612;BME280;6877;51.436;6.774;2023-07-29T05:17:17;100181.41;;;17.29;100.00
13612;BME280;6877;51.436;6.774;2023-07-29T05:19:44;100188.00;;;17.22;100.00
13612;BME280;6877;51.436;6.774;2023-07-29T05:22:10;100195.84;;;17.23;100.00
13612;BME280;6877;51.436;6.774;2023-07-29T05:24:42;100208.09;;;17.24;100.00
13612;BME280;6877;51.436;6.774;2023-07-29T05:27:08;100219.47;;;17.26;100.00
13612;BME280;6877;51.436;6.774;2023-07-29T05:29:35;100222.03;;;17.28;100.00
13612;BME280;6877;51.436;6.774;2023-07-29T05:32:06;100226.28;;;17.30;100.00
13612;BME280;6877;51.436;6.774;2023-07-29T05:34:33;100228.75;;;17.33;100.00
13612;BME280;6877;51.436;6.774;2023-07-29T05:37:00;100239.09;;;17.38;100.00
13612;BME280;6877;51.436;6.774;2023-07-29T05:39:26;100252.00;;;17.44;100.00
13612;BME280;6877;51.436;6.774;2023-07-29T05:41:52;100249.41;;;17.43;100.00
13612;BME280;6877;51.436;6.774;2023-07-29T05:44:19;100261.28;;;17.51;100.00
13612;BME280;6877;51.436;6.774;2023-07-29T05:46:45;100242.94;;;17.48;100.00
13612;BME280;6877;51.436;6.774;2023-07-29T05:49:12;100246.03;;;17.56;100.00
13612;BME280;6877;51.436;6.774;2023-07-29T05:51:38;100243.38;;;17.56;100.00
13612;BME280;6877;51.436;6.774;2023-07-29T05:54:05;100249.59;;;17.55;100.00
13612;BME280;6877;51.436;6.774;2023-07-29T05:56:31;100252.16;;;17.57;100.00
13612;BME280;6877;51.436;6.774;2023-07-29T05:59:03;100268.22;;;17.54;100.00
13612;BME280;6877;51.436;6.774;2023-07-29T06:01:34;100260.84;;;17.59;100.00
13612;BME280;6877;51.436;6.774;2023-07-29T06:04:01;100265.13;;;17.61;100.00
13612;BME280;6877;51.436;6.774;2023-07-29T06:06:27;100272.38;;;17.58;100.00
13612;BME280;6877;51.436;6.774;2023-07-29T06:08:59;100269.41;;;17.64;100.00
13612;BME280;6877;51.436;6.774;2023-07-29T06:11:25;100267.38;;;17.69;100.00
13612;BME280;6877;51.436;6.774;2023-07-29T06:13:52;100277.31;;;17.81;100.00
13612;BME280;6877;51.436;6.774;2023-07-29T06:16:18;100287.38;;;17.91;100.00
13612;BME280;6877;51.436;6.774;2023-07-29T06:18:45;100292.91;;;18.02;100.00
13612;BME280;6877;51.436;6.774;2023-07-29T06:21:11;100298.03;;;18.05;100.00
13612;BME280;6877;51.436;6.774;2023-07-29T06:23:43;100291.78;;;18.06;100.00
13612;BME280;6877;51.436;6.774;2023-07-29T06:26:10;100293.84;;;18.01;100.00
13612;BME280;6877;51.436;6.774;2023-07-29T06:28:41;100286.47;;;18.06;100.00
13612;BME280;6877;51.436;6.774;2023-07-29T06:31:13;100291.78;;;18.06;100.00
13612;BME280;6877;51.436;6.774;2023-07-29T06:33:44;100293.50;;;18.07;100.00
13612;BME280;6877;51.436;6.774;2023-07-29T06:36:11;100297.50;;;18.14;100.00
13612;BME280;6877;51.436;6.774;2023-07-29T06:38:38;100300.66;;;18.21;100.00
13612;BME280;6877;51.436;6.774;2023-07-29T06:41:09;100305.13;;;18.35;100.00
13612;BME280;6877;51.436;6.774;2023-07-29T06:43:41;100309.38;;;18.53;100.00
13612;BME280;6877;51.436;6.774;2023-07-29T06:46:07;100302.47;;;18.81;100.00
13612;BME280;6877;51.436;6.774;2023-07-29T06:48:34;100300.16;;;19.05;100.00
13612;BME280;6877;51.436;6.774;2023-07-29T06:51:05;100297.03;;;19.27;100.00
13612;BME280;6877;51.436;6.774;2023-07-29T06:53:32;100293.72;;;19.37;100.00
13612;BME280;6877;51.436;6.774;2023-07-29T06:55:58;100291.44;;;19.45;100.00
13612;BME280;6877;51.436;6.774;2023-07-29T06:58:25;100296.63;;;19.47;100.00
13612;BME280;6877;51.436;6.774;2023-07-29T07:00:52;100300.97;;;19.48;100.00
13612;BME280;6877;51.436;6.774;2023-07-29T07:03:18;100305.75;;;19.43;99.32
13612;BME280;6877;51.436;6.774;2023-07-29T07:05:45;100295.31;;;19.40;99.85
13612;BME280;6877;51.436;6.774;2023-07-29T07:08:16;100301.66;;;19.52;99.78
13612;BME280;6877;51.436;6.774;2023-07-29T07:10:43;100299.00;;;19.66;96.06
13612;BME280;6877;51.436;6.774;2023-07-29T07:13:09;100296.88;;;19.85;92.73
13612;BME280;6877;51.436;6.774;2023-07-29T07:15:35;100309.69;;;20.20;91.00
13612;BME280;6877;51.436;6.774;2023-07-29T07:18:02;100302.31;;;20.38;87.24
13612;BME280;6877;51.436;6.774;2023-07-29T07:20:34;100316.34;;;20.40;86.59
13612;BME280;6877;51.436;6.774;2023-07-29T07:23:01;100312.53;;;20.44;86.58
13612;BME280;6877;51.436;6.774;2023-07-29T07:25:27;100314.19;;;20.32;87.38
13612;BME280;6877;51.436;6.774;2023-07-29T07:27:54;100308.69;;;20.08;86.22
13612;BME280;6877;51.436;6.774;2023-07-29T07:30:20;100302.66;;;19.92;88.42
13612;BME280;6877;51.436;6.774;2023-07-29T07:32:46;100302.44;;;19.95;88.77
13612;BME280;6877;51.436;6.774;2023-07-29T07:35:18;100304.13;;;20.10;87.20
13612;BME280;6877;51.436;6.774;2023-07-29T07:37:45;100306.94;;;20.22;85.96
13612;BME280;6877;51.436;6.774;2023-07-29T07:40:16;100302.41;;;20.36;85.02
13612;BME280;6877;51.436;6.774;2023-07-29T07:42:47;100315.72;;;20.36;84.23
13612;BME280;6877;51.436;6.774;2023-07-29T07:45:19;100307.22;;;20.44;83.96
13612;BME280;6877;51.436;6.774;2023-07-29T07:47:54;100325.69;;;20.60;83.37
13612;BME280;6877;51.436;6.774;2023-07-29T07:50:25;100325.34;;;20.65;82.02
13612;BME280;6877;51.436;6.774;2023-07-29T07:52:59;100324.88;;;20.85;81.46
13612;BME280;6877;51.436;6.774;2023-07-29T07:55:26;100316.56;;;21.02;81.19
13612;BME280;6877;51.436;6.774;2023-07-29T07:57:52;100312.63;;;21.08;80.12
13612;BME280;6877;51.436;6.774;2023-07-29T08:00:19;100316.78;;;21.12;79.62
13612;BME280;6877;51.436;6.774;2023-07-29T08:02:51;100315.41;;;21.06;79.90
13612;BME280;6877;51.436;6.774;2023-07-29T08:05:17;100318.50;;;21.13;81.25
13612;BME280;6877;51.436;6.774;2023-07-29T08:07:45;100314.16;;;21.25;80.78
13612;BME280;6877;51.436;6.774;2023-07-29T08:10:17;100325.09;;;21.59;79.01
13612;BME280;6877;51.436;6.774;2023-07-29T08:12:43;100321.47;;;22.68;75.77
13612;BME280;6877;51.436;6.774;2023-07-29T08:15:10;100324.94;;;24.28;68.33
13612;BME280;6877;51.436;6.774;2023-07-29T08:17:36;100329.34;;;25.64;62.66
13612;BME280;6877;51.436;6.774;2023-07-29T08:20:03;100330.94;;;26.07;59.38
13612;BME280;6877;51.436;6.774;2023-07-29T08:22:29;100325.41;;;26.09;60.10
13612;BME280;6877;51.436;6.774;2023-07-29T08:24:56;100335.19;;;26.88;58.31
13612;BME280;6877;51.436;6.774;2023-07-29T08:27:27;100329.78;;;27.17;55.55
13612;BME280;6877;51.436;6.774;2023-07-29T08:29:54;100339.69;;;28.98;49.84
13612;BME280;6877;51.436;6.774;2023-07-29T08:32:21;100339.97;;;31.30;43.96
13612;BME280;6877;51.436;6.774;2023-07-29T08:34:47;100347.56;;;32.76;41.12
13612;BME280;6877;51.436;6.774;2023-07-29T08:37:14;100350.22;;;34.54;37.22
13612;BME280;6877;51.436;6.774;2023-07-29T08:39:40;100342.59;;;35.96;34.89
13612;BME280;6877;51.436;6.774;2023-07-29T08:42:08;100342.84;;;34.97;34.24
13612;BME280;6877;51.436;6.774;2023-07-29T08:44:42;100340.63;;;34.36;34.21
13612;BME280;6877;51.436;6.774;2023-07-29T08:47:09;100332.72;;;34.42;34.70
13612;BME280;6877;51.436;6.774;2023-07-29T08:49:39;100330.97;;;34.34;33.93
13612;BME280;6877;51.436;6.774;2023-07-29T08:52:07;100339.78;;;35.35;32.68
13612;BME280;6877;51.436;6.774;2023-07-29T08:54:39;100341.28;;;35.79;31.39
13612;BME280;6877;51.436;6.774;2023-07-29T08:57:06;100347.06;;;35.00;33.19
13612;BME280;6877;51.436;6.774;2023-07-29T08:59:33;100338.38;;;32.31;36.24
13612;BME280;6877;51.436;6.774;2023-07-29T09:02:05;100329.41;;;29.88;41.83
13612;BME280;6877;51.436;6.774;2023-07-29T09:04:31;100326.88;;;28.21;46.25
13612;BME280;6877;51.436;6.774;2023-07-29T09:06:58;100330.22;;;27.02;49.37
13612;BME280;6877;51.436;6.774;2023-07-29T09:09:25;100320.59;;;25.93;52.08
13612;BME280;6877;51.436;6.774;2023-07-29T09:11:52;100322.78;;;24.96;55.28
13612;BME280;6877;51.436;6.774;2023-07-29T09:14:19;100326.69;;;24.50;57.15
13612;BME280;6877;51.436;6.774;2023-07-29T09:16:51;100326.03;;;24.14;59.10
13612;BME280;6877;51.436;6.774;2023-07-29T09:19:19;100333.34;;;24.12;60.34
13612;BME280;6877;51.436;6.774;2023-07-29T09:21:46;100329.75;;;23.91;60.90
13612;BME280;6877;51.436;6.774;2023-07-29T09:24:16;100326.59;;;23.63;62.31
13612;BME280;6877;51.436;6.774;2023-07-29T09:26:50;100328.44;;;23.74;62.81
13612;BME280;6877;51.436;6.774;2023-07-29T09:29:21;100334.94;;;24.03;62.68
13612;BME280;6877;51.436;6.774;2023-07-29T09:31:48;100334.50;;;23.87;62.67
13612;BME280;6877;51.436;6.774;2023-07-29T09:34:16;100330.34;;;23.38;64.46
13612;BME280;6877;51.436;6.774;2023-07-29T09:36:43;100328.09;;;22.87;66.47
13612;BME280;6877;51.436;6.774;2023-07-29T09:39:13;100335.34;;;22.50;68.48
13612;BME280;6877;51.436;6.774;2023-07-29T09:41:40;100336.03;;;22.40;69.65
13612;BME280;6877;51.436;6.774;2023-07-29T09:44:06;100327.94;;;22.42;69.91
13612;BME280;6877;51.436;6.774;2023-07-29T09:46:37;100327.19;;;22.75;68.93
13612;BME280;6877;51.436;6.774;2023-07-29T09:49:05;100328.41;;;23.51;66.58
13612;BME280;6877;51.436;6.774;2023-07-29T09:51:40;100334.94;;;25.00;61.64
13612;BME280;6877;51.436;6.774;2023-07-29T09:54:07;100339.31;;;28.04;53.22
13612;BME280;6877;51.436;6.774;2023-07-29T09:56:33;100336.47;;;31.38;44.91
13612;BME280;6877;51.436;6.774;2023-07-29T09:59:05;100341.66;;;33.84;37.36
13612;BME280;6877;51.436;6.774;2023-07-29T10:01:32;100333.13;;;34.60;34.76
13612;BME280;6877;51.436;6.774;2023-07-29T10:04:02;100342.84;;;35.54;33.67
13612;BME280;6877;51.436;6.774;2023-07-29T10:06:29;100343.41;;;35.97;32.51
13612;BME280;6877;51.436;6.774;2023-07-29T10:09:01;100354.63;;;36.29;31.52
13612;BME280;6877;51.436;6.774;2023-07-29T10:11:28;100346.41;;;34.98;32.97
13612;BME280;6877;51.436;6.774;2023-07-29T10:13:55;100330.56;;;34.01;34.84
13612;BME280;6877;51.436;6.774;2023-07-29T10:16:23;100333.44;;;33.48;35.53
13612;BME280;6877;51.436;6.774;2023-07-29T10:18:51;100331.88;;;32.40;37.36
13612;BME280;6877;51.436;6.774;2023-07-29T10:21:21;100333.09;;;31.75;38.04
13612;BME280;6877;51.436;6.774;2023-07-29T10:23:49;100338.69;;;33.35;35.92
13612;BME280;6877;51.436;6.774;2023-07-29T10:26:20;100340.88;;;32.64;36.16
13612;BME280;6877;51.436;6.774;2023-07-29T10:28:47;100332.47;;;32.04;38.09
13612;BME280;6877;51.436;6.774;2023-07-29T10:31:18;100342.34;;;33.27;35.23
13612;BME280;6877;51.436;6.774;2023-07-29T10:33:45;100334.88;;;34.10;33.14
13612;BME280;6877;51.436;6.774;2023-07-29T10:36:12;100333.22;;;32.67;35.98
13612;BME280;6877;51.436;6.774;2023-07-29T10:38:40;100330.28;;;30.80;39.60
13612;BME280;6877;51.436;6.774;2023-07-29T10:41:07;100324.16;;;29.78;41.62
13612;BME280;6877;51.436;6.774;2023-07-29T10:43:36;100315.75;;;29.47;43.27
13612;BME280;6877;51.436;6.774;2023-07-29T10:46:23;100327.38;;;30.65;40.86
13612;BME280;6877;51.436;6.774;2023-07-29T10:51:35;100336.72;;;33.43;35.52
13612;BME280;6877;51.436;6.774;2023-07-29T10:54:12;100324.66;;;32.33;36.15
13612;BME280;6877;51.436;6.774;2023-07-29T10:56:41;100318.19;;;30.09;40.61
13612;BME280;6877;51.436;6.774;2023-07-29T11:02:00;100301.69;;;27.39;47.88
13612;BME280;6877;51.436;6.774;2023-07-29T11:04:28;100298.75;;;26.75;49.48
13612;BME280;6877;51.436;6.774;2023-07-29T11:09:43;100296.06;;;26.46;50.67
13612;BME280;6877;51.436;6.774;2023-07-29T11:17:51;100305.09;;;26.35;51.26
13612;BME280;6877;51.436;6.774;2023-07-29T11:20:28;100305.97;;;26.75;50.73
13612;BME280;6877;51.436;6.774;2023-07-29T11:22:56;100315.69;;;26.86;50.58
13612;BME280;6877;51.436;6.774;2023-07-29T11:25:24;100315.41;;;26.40;51.74
13612;BME280;6877;51.436;6.774;2023-07-29T11:27:57;100312.28;;;26.16;52.17
13612;BME280;6877;51.436;6.774;2023-07-29T11:30:25;100310.97;;;25.91;52.49
13612;BME280;6877;51.436;6.774;2023-07-29T11:32:55;100304.69;;;25.71;52.77
13612;BME280;6877;51.436;6.774;2023-07-29T11:35:22;100298.19;;;26.14;52.55
13612;BME280;6877;51.436;6.774;2023-07-29T11:37:55;100302.31;;;27.23;49.70
13612;BME280;6877;51.436;6.774;2023-07-29T11:40:23;100298.19;;;27.66;48.02
13612;BME280;6877;51.436;6.774;2023-07-29T11:42:51;100296.81;;;27.62;48.33
13612;BME280;6877;51.436;6.774;2023-07-29T11:45:20;100292.09;;;27.36;49.50
13612;BME280;6877;51.436;6.774;2023-07-29T11:47:46;100291.53;;;26.76;49.99
13612;BME280;6877;51.436;6.774;2023-07-29T11:50:18;100285.19;;;25.99;51.98
13612;BME280;6877;51.436;6.774;2023-07-29T11:52:46;100274.72;;;25.96;53.29
13612;BME280;6877;51.436;6.774;2023-07-29T11:55:14;100280.38;;;26.22;51.74
13612;BME280;6877;51.436;6.774;2023-07-29T11:57:42;100278.97;;;26.38;51.46
13612;BME280;6877;51.436;6.774;2023-07-29T12:00:10;100282.38;;;26.30;51.45
13612;BME280;6877;51.436;6.774;2023-07-29T12:02:39;100286.03;;;26.09;50.77
13612;BME280;6877;51.436;6.774;2023-07-29T12:05:08;100285.34;;;26.17;50.57
13612;BME280;6877;51.436;6.774;2023-07-29T12:07:35;100285.75;;;26.32;50.33
13612;BME280;6877;51.436;6.774;2023-07-29T12:10:05;100289.06;;;25.76;50.51
13612;BME280;6877;51.436;6.774;2023-07-29T12:12:31;100278.38;;;25.45;52.45
13612;BME280;6877;51.436;6.774;2023-07-29T12:14:58;100270.53;;;25.63;53.05
13612;BME280;6877;51.436;6.774;2023-07-29T12:17:24;100275.56;;;26.06;51.36
13612;BME280;6877;51.436;6.774;2023-07-29T12:19:54;100273.16;;;25.84;50.81
13612;BME280;6877;51.436;6.774;2023-07-29T12:22:23;100273.81;;;25.66;51.44
13612;BME280;6877;51.436;6.774;2023-07-29T12:24:51;100268.56;;;25.65;52.14
13612;BME280;6877;51.436;6.774;2023-07-29T12:27:21;100282.06;;;25.94;52.34
13612;BME280;6877;51.436;6.774;2023-07-29T12:29:52;100275.56;;;26.06;51.65
13612;BME280;6877;51.436;6.774;2023-07-29T12:32:19;100281.63;;;25.89;51.89
13612;BME280;6877;51.436;6.774;2023-07-29T12:34:46;100278.25;;;25.56;52.23
13612;BME280;6877;51.436;6.774;2023-07-29T12:37:12;100279.34;;;25.44;53.21
13612;BME280;6877;51.436;6.774;2023-07-29T12:39:40;100277.13;;;25.49;54.08
13612;BME280;6877;51.436;6.774;2023-07-29T12:42:10;100279.19;;;25.36;54.93
13612;BME280;6877;51.436;6.774;2023-07-29T12:44:37;100270.09;;;24.96;57.12
13612;BME280;6877;51.436;6.774;2023-07-29T12:47:05;100281.53;;;24.78;57.70
13612;BME280;6877;51.436;6.774;2023-07-29T12:49:33;100271.22;;;24.94;57.99
13612;BME280;6877;51.436;6.774;2023-07-29T12:51:59;100278.53;;;25.53;55.50
13612;BME280;6877;51.436;6.774;2023-07-29T12:54:26;100272.31;;;25.83;54.54
13612;BME280;6877;51.436;6.774;2023-07-29T12:56:57;100263.72;;;26.28;52.57
13612;BME280;6877;51.436;6.774;2023-07-29T12:59:24;100259.78;;;26.62;51.97
13612;BME280;6877;51.436;6.774;2023-07-29T13:01:50;100261.75;;;26.60;49.73
13612;BME280;6877;51.436;6.774;2023-07-29T13:04:17;100273.59;;;26.47;51.16
13612;BME280;6877;51.436;6.774;2023-07-29T13:06:43;100268.81;;;26.41;51.82
13612;BME280;6877;51.436;6.774;2023-07-29T13:09:10;100275.88;;;26.23;52.31
13612;BME280;6877;51.436;6.774;2023-07-29T13:11:36;100269.38;;;26.16;52.96
13612;BME280;6877;51.436;6.774;2023-07-29T13:14:03;100257.25;;;26.11;53.69
13612;BME280;6877;51.436;6.774;2023-07-29T13:16:30;100260.59;;;26.04;53.49
13612;BME280;6877;51.436;6.774;2023-07-29T13:18:56;100267.00;;;25.62;54.67
13612;BME280;6877;51.436;6.774;2023-07-29T13:21:23;100263.09;;;25.05;54.99
13612;BME280;6877;51.436;6.774;2023-07-29T13:23:54;100261.03;;;24.46;56.77